createdAt,value
2022-09-16T00:01:54.209Z,99914.00
2022-09-16T00:04:21.042Z,99907.00
2022-09-16T00:06:47.945Z,99895.00
2022-09-16T00:09:14.705Z,99905.00
2022-09-16T00:11:41.501Z,99899.00
2022-09-16T00:14:09.615Z,99900.00
2022-09-16T00:16:36.560Z,99904.00
2022-09-16T00:19:03.648Z,99912.00
2022-09-16T00:21:31.151Z,99921.00
2022-09-16T00:23:58.059Z,99928.00
2022-09-16T00:26:25.860Z,99925.00
2022-09-16T00:28:52.690Z,99922.00
2022-09-16T00:31:19.665Z,99915.00
2022-09-16T00:33:46.573Z,99927.00
2022-09-16T00:36:16.050Z,99925.00
2022-09-16T00:38:42.874Z,99922.00
2022-09-16T00:41:16.017Z,99912.00
2022-09-16T00:44:03.182Z,99930.00
2022-09-16T00:46:45.694Z,99925.00
2022-09-16T00:49:22.254Z,99900.00
2022-09-16T00:51:51.132Z,99916.00
2022-09-16T00:54:18.912Z,99913.00
2022-09-16T00:56:48.299Z,99901.00
2022-09-16T00:59:42.087Z,99908.00
2022-09-16T01:02:14.459Z,99919.00
2022-09-16T01:04:55.997Z,99903.00
2022-09-16T01:07:40.675Z,99904.00
2022-09-16T01:10:07.965Z,99906.00
2022-09-16T01:12:35.247Z,99895.00
2022-09-16T01:15:02.643Z,99902.00
2022-09-16T01:18:06.651Z,99909.00
2022-09-16T01:20:48.694Z,99901.00
2022-09-16T01:23:35.619Z,99894.00
2022-09-16T01:26:39.626Z,99892.00
2022-09-16T01:30:04.189Z,99888.00
2022-09-16T01:32:49.867Z,99888.00
2022-09-16T01:35:22.619Z,99889.00
2022-09-16T01:38:01.226Z,99892.00
2022-09-16T01:40:43.392Z,99895.00
2022-09-16T01:43:54.640Z,99893.00
2022-09-16T01:46:35.087Z,99895.00
2022-09-16T01:49:31.171Z,99890.00
2022-09-16T01:52:03.780Z,99883.00
2022-09-16T01:54:40.940Z,99881.00
2022-09-16T01:57:20.548Z,99879.00
2022-09-16T01:59:58.828Z,99885.00
2022-09-16T02:02:32.793Z,99883.00
2022-09-16T02:05:01.379Z,99883.00
2022-09-16T02:07:32.548Z,99870.00
2022-09-16T02:10:06.798Z,99880.00
2022-09-16T02:12:37.284Z,99867.00
2022-09-16T02:15:08.254Z,99877.00
2022-09-16T02:17:38.558Z,99871.00
2022-09-16T02:20:07.877Z,99863.00
2022-09-16T02:22:44.293Z,99867.00
2022-09-16T02:25:13.238Z,99863.00
2022-09-16T02:27:41.893Z,99859.00
2022-09-16T02:30:14.238Z,99870.00
2022-09-16T02:32:43.583Z,99859.00
2022-09-16T02:35:12.321Z,99866.00
2022-09-16T02:37:49.688Z,99855.00
2022-09-16T02:40:24.537Z,99858.00
2022-09-16T02:42:52.108Z,99850.00
2022-09-16T02:45:22.648Z,99844.00
2022-09-16T02:48:03.320Z,99847.00
2022-09-16T02:50:44.945Z,99837.00
2022-09-16T02:53:38.118Z,99851.00
2022-09-16T02:56:22.760Z,99851.00
2022-09-16T02:58:49.562Z,99843.00
2022-09-16T03:01:17.755Z,99842.00
2022-09-16T03:03:44.645Z,99851.00
2022-09-16T03:06:18.089Z,99850.00
2022-09-16T03:08:45.524Z,99858.00
2022-09-16T03:11:34.956Z,99846.00
2022-09-16T03:14:15.273Z,99853.00
2022-09-16T03:16:54.192Z,99848.00
2022-09-16T03:19:43.023Z,99853.00
2022-09-16T03:22:27.899Z,99847.00
2022-09-16T03:25:20.498Z,99851.00
2022-09-16T03:27:51.952Z,99842.00
2022-09-16T03:30:19.101Z,99849.00
2022-09-16T03:32:57.783Z,99843.00
2022-09-16T03:35:28.220Z,99850.00
2022-09-16T03:37:57.264Z,99830.00
2022-09-16T03:40:24.587Z,99845.00
2022-09-16T03:42:51.461Z,99834.00
2022-09-16T03:45:20.888Z,99838.00
2022-09-16T03:47:50.171Z,99845.00
2022-09-16T03:50:17.964Z,99838.00
2022-09-16T03:52:44.739Z,99842.00
2022-09-16T03:55:11.636Z,99837.00
2022-09-16T03:57:38.687Z,99828.00
2022-09-16T04:00:07.331Z,99826.00
2022-09-16T04:02:34.423Z,99826.00
2022-09-16T04:05:01.229Z,99834.00
2022-09-16T04:07:28.042Z,99825.00
2022-09-16T04:09:54.912Z,99825.00
2022-09-16T04:12:21.675Z,99832.00
2022-09-16T04:14:48.407Z,99840.00
2022-09-16T04:17:15.169Z,99840.00
2022-09-16T04:19:41.964Z,99846.00
2022-09-16T04:22:08.697Z,99833.00
2022-09-16T04:24:35.730Z,99836.00
2022-09-16T04:27:02.484Z,99841.00
2022-09-16T04:29:29.230Z,99830.00
2022-09-16T04:31:56.054Z,99819.00
2022-09-16T04:34:22.836Z,99824.00
2022-09-16T04:36:49.627Z,99813.00
2022-09-16T04:39:16.545Z,99823.00
2022-09-16T04:41:43.324Z,99823.00
2022-09-16T04:44:10.209Z,99826.00
2022-09-16T04:46:37.023Z,99831.00
2022-09-16T04:49:03.928Z,99834.00
2022-09-16T04:51:32.180Z,99826.00
2022-09-16T04:53:59.971Z,99830.00
2022-09-16T04:56:29.252Z,99831.00
2022-09-16T04:58:58.568Z,99834.00
2022-09-16T05:01:27.956Z,99833.00
2022-09-16T05:03:57.298Z,99820.00
2022-09-16T05:06:33.606Z,99820.00
2022-09-16T05:09:01.066Z,99824.00
2022-09-16T05:11:30.738Z,99824.00
2022-09-16T05:14:02.202Z,99825.00
2022-09-16T05:16:29.648Z,99823.00
2022-09-16T05:18:58.015Z,99821.00
2022-09-16T05:21:26.461Z,99822.00
2022-09-16T05:23:53.704Z,99818.00
2022-09-16T05:26:23.240Z,99823.00
2022-09-16T05:28:50.926Z,99822.00
2022-09-16T05:31:21.808Z,99810.00
2022-09-16T05:33:58.499Z,99808.00
2022-09-16T05:36:26.846Z,99824.00
2022-09-16T05:39:21.151Z,99817.00
2022-09-16T05:41:40.798Z,99825.00
2022-09-16T05:44:07.695Z,99831.00
2022-09-16T05:46:35.124Z,99834.00
2022-09-16T05:49:02.126Z,99832.00
2022-09-16T05:51:28.951Z,99833.00
2022-09-16T05:53:55.950Z,99846.00
2022-09-16T05:56:26.110Z,99844.00
2022-09-16T05:58:59.629Z,99839.00
2022-09-16T06:01:29.708Z,99843.00
2022-09-16T06:03:56.784Z,99847.00
2022-09-16T06:06:32.323Z,99824.00
2022-09-16T06:09:01.472Z,99829.00
2022-09-16T06:11:28.783Z,99826.00
2022-09-16T06:13:57.914Z,99831.00
2022-09-16T06:16:25.945Z,99828.00
2022-09-16T06:18:53.756Z,99837.00
2022-09-16T06:21:21.245Z,99830.00
2022-09-16T06:23:47.974Z,99829.00
2022-09-16T06:26:20.098Z,99823.00
2022-09-16T06:28:47.431Z,99813.00
2022-09-16T06:31:16.918Z,99819.00
2022-09-16T06:33:43.814Z,99813.00
2022-09-16T06:36:12.817Z,99829.00
2022-09-16T06:38:40.043Z,99820.00
2022-09-16T06:41:08.910Z,99832.00
2022-09-16T06:43:36.489Z,99820.00
2022-09-16T06:46:13.730Z,99829.00
2022-09-16T06:48:41.201Z,99821.00
2022-09-16T06:51:14.780Z,99830.00
2022-09-16T06:53:42.160Z,99858.00
2022-09-16T06:56:12.327Z,99835.00
2022-09-16T06:58:41.513Z,99845.00
2022-09-16T07:01:13.810Z,99832.00
2022-09-16T07:03:42.563Z,99824.00
2022-09-16T07:06:10.303Z,99820.00
2022-09-16T07:08:37.941Z,99807.00
2022-09-16T07:11:12.140Z,99808.00
2022-09-16T07:13:39.399Z,99797.00
2022-09-16T07:16:13.211Z,99799.00
2022-09-16T07:18:41.401Z,99788.00
2022-09-16T07:21:16.053Z,99777.00
2022-09-16T07:23:43.845Z,99762.00
2022-09-16T07:26:13.658Z,99752.00
2022-09-16T07:28:41.881Z,99765.00
2022-09-16T07:31:11.119Z,99759.00
2022-09-16T07:33:43.294Z,99776.00
2022-09-16T07:36:12.144Z,99793.00
2022-09-16T07:38:39.522Z,99810.00
2022-09-16T07:41:07.910Z,99800.00
2022-09-16T07:43:34.881Z,99789.00
2022-09-16T07:46:01.929Z,99803.00
2022-09-16T07:48:34.696Z,99806.00
2022-09-16T07:51:07.941Z,99798.00
2022-09-16T07:53:35.535Z,99813.00
2022-09-16T07:56:07.502Z,99823.00
2022-09-16T07:58:34.293Z,99834.00
2022-09-16T08:01:04.494Z,99828.00
2022-09-16T08:03:33.061Z,99820.00
2022-09-16T08:06:02.026Z,99833.00
2022-09-16T08:08:29.379Z,99828.00
2022-09-16T08:10:57.245Z,99827.00
2022-09-16T08:13:24.302Z,99829.00
2022-09-16T08:15:51.066Z,99859.00
2022-09-16T08:18:17.809Z,99847.00
2022-09-16T08:20:44.593Z,99847.00
2022-09-16T08:23:12.630Z,99853.00
2022-09-16T08:25:39.383Z,99847.00
2022-09-16T08:28:06.146Z,99854.00
2022-09-16T08:30:32.939Z,99844.00
2022-09-16T08:32:59.778Z,99857.00
2022-09-16T08:35:26.682Z,99845.00
2022-09-16T08:37:53.495Z,99875.00
2022-09-16T08:40:23.230Z,99868.00
2022-09-16T08:42:58.249Z,99881.00
2022-09-16T08:45:43.423Z,99875.00
2022-09-16T08:48:28.814Z,99870.00
2022-09-16T08:50:57.375Z,99859.00
2022-09-16T08:54:02.182Z,99879.00
2022-09-16T08:56:34.393Z,99869.00
2022-09-16T08:59:02.137Z,99863.00
2022-09-16T09:01:41.270Z,99866.00
2022-09-16T09:04:08.294Z,99832.00
2022-09-16T09:06:53.877Z,99826.00
2022-09-16T09:09:37.694Z,99840.00
2022-09-16T09:12:04.656Z,99837.00
2022-09-16T09:15:00.835Z,99863.00
2022-09-16T09:18:16.253Z,99828.00
2022-09-16T09:20:58.674Z,99822.00
2022-09-16T09:23:44.971Z,99838.00
2022-09-16T09:26:21.664Z,99857.00
2022-09-16T09:28:51.117Z,99857.00
2022-09-16T09:31:30.956Z,99861.00
2022-09-16T09:34:31.581Z,99850.00
2022-09-16T09:37:20.525Z,99851.00
2022-09-16T09:40:19.512Z,99883.00
2022-09-16T09:43:01.684Z,99886.00
2022-09-16T09:45:32.613Z,99884.00
2022-09-16T09:48:30.076Z,99865.00
2022-09-16T09:50:59.895Z,99854.00
2022-09-16T09:53:31.670Z,99848.00
2022-09-16T09:56:07.636Z,99834.00
2022-09-16T09:58:39.918Z,99844.00
2022-09-16T10:01:06.881Z,99842.00
2022-09-16T10:03:33.799Z,99831.00
2022-09-16T10:06:00.698Z,99810.00
2022-09-16T10:08:35.109Z,99836.00
2022-09-16T10:11:14.515Z,99822.00
2022-09-16T10:13:58.060Z,99870.00
2022-09-16T10:16:30.944Z,99848.00
2022-09-16T10:19:16.961Z,99843.00
2022-09-16T10:21:47.703Z,99831.00
2022-09-16T10:24:32.754Z,99793.00
2022-09-16T10:27:00.797Z,99766.00
2022-09-16T10:29:27.800Z,99752.00
2022-09-16T10:31:55.447Z,99733.00
2022-09-16T10:34:36.697Z,99740.00
2022-09-16T10:37:07.873Z,99739.00
2022-09-16T10:39:34.766Z,99758.00
2022-09-16T10:42:02.707Z,99769.00
2022-09-16T10:44:31.856Z,99798.00
2022-09-16T10:47:08.293Z,99790.00
2022-09-16T10:50:04.996Z,99821.00
2022-09-16T10:52:41.131Z,99828.00
2022-09-16T10:55:22.546Z,99786.00
2022-09-16T10:57:49.336Z,99780.00
2022-09-16T11:00:24.690Z,99756.00
2022-09-16T11:02:51.517Z,99734.00
2022-09-16T11:05:34.156Z,99748.00
2022-09-16T11:08:23.486Z,99747.00
2022-09-16T11:10:56.772Z,99770.00
2022-09-16T11:13:54.555Z,99776.00
2022-09-16T11:16:49.646Z,99782.00
2022-09-16T11:19:25.669Z,99771.00
2022-09-16T11:22:05.123Z,99755.00
2022-09-16T11:24:55.821Z,99729.00
2022-09-16T11:27:33.792Z,99713.00
2022-09-16T11:30:12.646Z,99696.00
2022-09-16T11:33:05.347Z,99672.00
2022-09-16T11:36:03.985Z,99682.00
2022-09-16T11:38:42.381Z,99687.00
2022-09-16T11:41:29.894Z,99719.00
2022-09-16T11:44:29.245Z,99724.00
2022-09-16T11:47:26.509Z,99732.00
2022-09-16T11:49:56.035Z,99743.00
2022-09-16T11:52:31.903Z,99724.00
2022-09-16T11:55:18.541Z,99714.00
2022-09-16T11:57:51.313Z,99687.00
2022-09-16T12:00:19.303Z,99706.00
2022-09-16T12:02:52.379Z,99723.00
2022-09-16T12:05:36.071Z,99700.00
2022-09-16T12:08:22.976Z,99689.00
2022-09-16T12:10:56.892Z,99678.00
2022-09-16T12:13:44.754Z,99651.00
2022-09-16T12:16:18.043Z,99662.00
2022-09-16T12:18:49.913Z,99657.00
2022-09-16T12:21:25.441Z,99662.00
2022-09-16T12:24:13.172Z,99673.00
2022-09-16T12:26:43.941Z,99675.00
2022-09-16T12:29:29.555Z,99657.00
2022-09-16T12:32:09.925Z,99655.00
2022-09-16T12:34:58.333Z,99711.00
2022-09-16T12:37:40.250Z,99673.00
2022-09-16T12:40:20.905Z,99695.00
2022-09-16T12:43:32.339Z,99655.00
2022-09-16T12:46:14.146Z,99674.00
2022-09-16T12:48:44.100Z,99690.00
2022-09-16T12:51:29.464Z,99676.00
2022-09-16T12:54:24.242Z,99652.00
2022-09-16T12:57:12.204Z,99655.00
2022-09-16T13:00:08.287Z,99643.00
2022-09-16T13:02:38.434Z,99668.00
2022-09-16T13:05:21.017Z,99672.00
2022-09-16T13:07:50.483Z,99680.00
2022-09-16T13:10:46.994Z,99691.00
2022-09-16T13:13:29.752Z,99673.00
2022-09-16T13:15:58.805Z,99667.00
2022-09-16T13:18:43.776Z,99649.00
2022-09-16T13:21:39.335Z,99630.00
2022-09-16T13:24:40.827Z,99629.00
2022-09-16T13:27:41.584Z,99638.00
2022-09-16T13:30:17.035Z,99636.00
2022-09-16T13:32:58.313Z,99632.00
2022-09-16T13:35:36.281Z,99618.00
2022-09-16T13:38:17.025Z,99618.00
2022-09-16T13:41:06.238Z,99613.00
2022-09-16T13:43:42.190Z,99629.00
2022-09-16T13:46:28.081Z,99608.00
2022-09-16T13:49:02.708Z,99618.00
2022-09-16T13:51:41.130Z,99606.00
2022-09-16T13:54:28.476Z,99588.00
2022-09-16T13:57:12.595Z,99576.00
2022-09-16T13:59:58.167Z,99552.00
2022-09-16T14:02:55.485Z,99560.00
2022-09-16T14:05:25.481Z,99540.00
2022-09-16T14:08:14.892Z,99533.00
2022-09-16T14:11:09.859Z,99516.00
2022-09-16T14:13:41.789Z,99496.00
2022-09-16T14:16:23.012Z,99495.00
2022-09-16T14:19:17.061Z,99478.00
2022-09-16T14:21:45.352Z,99492.00
2022-09-16T14:24:16.204Z,99483.00
2022-09-16T14:26:53.723Z,99479.00
2022-09-16T14:29:21.093Z,99485.00
2022-09-16T14:31:48.291Z,99483.00
2022-09-16T14:34:37.930Z,99465.00
2022-09-16T14:37:05.461Z,99478.00
2022-09-16T14:39:32.804Z,99474.00
2022-09-16T14:42:05.326Z,99468.00
2022-09-16T14:44:42.606Z,99474.00
2022-09-16T14:47:49.979Z,99462.00
2022-09-16T14:50:24.981Z,99462.00
2022-09-16T14:53:00.311Z,99462.00
2022-09-16T14:55:33.533Z,99466.00
2022-09-16T14:58:00.479Z,99458.00
2022-09-16T15:00:45.438Z,99445.00
2022-09-16T15:03:31.126Z,99461.00
2022-09-16T15:06:00.473Z,99455.00
2022-09-16T15:08:33.678Z,99462.00
2022-09-16T15:11:24.219Z,99454.00
2022-09-16T15:13:58.006Z,99459.00
2022-09-16T15:16:25.428Z,99463.00
2022-09-16T15:18:55.214Z,99467.00
2022-09-16T15:21:26.354Z,99454.00
2022-09-16T15:23:59.237Z,99467.00
2022-09-16T15:26:30.953Z,99458.00
2022-09-16T15:29:04.042Z,99464.00
2022-09-16T15:31:34.726Z,99467.00
2022-09-16T15:34:04.801Z,99478.00
2022-09-16T15:36:40.775Z,99477.00
2022-09-16T15:39:29.378Z,99473.00
2022-09-16T15:42:06.159Z,99481.00
2022-09-16T15:44:37.264Z,99486.00
2022-09-16T15:47:04.934Z,99494.00
2022-09-16T15:49:36.462Z,99493.00
2022-09-16T15:52:09.336Z,99497.00
2022-09-16T15:54:59.332Z,99493.00
2022-09-16T15:57:44.300Z,99492.00
2022-09-16T16:00:14.042Z,99485.00
2022-09-16T16:02:53.350Z,99504.00
2022-09-16T16:05:29.357Z,99491.00
2022-09-16T16:08:03.214Z,99493.00
2022-09-16T16:10:36.173Z,99499.00
2022-09-16T16:13:04.745Z,99496.00
2022-09-16T16:15:35.895Z,99501.00
2022-09-16T16:18:05.668Z,99503.00
2022-09-16T16:20:34.105Z,99501.00
2022-09-16T16:23:01.729Z,99503.00
2022-09-16T16:25:29.503Z,99509.00
2022-09-16T16:27:56.297Z,99510.00
2022-09-16T16:30:36.783Z,99509.00
2022-09-16T16:33:07.451Z,99519.00
2022-09-16T16:35:34.372Z,99515.00
2022-09-16T16:38:02.660Z,99523.00
2022-09-16T16:40:45.135Z,99533.00
2022-09-16T16:43:12.555Z,99541.00
2022-09-16T16:45:39.358Z,99541.00
2022-09-16T16:48:06.246Z,99545.00
2022-09-16T16:50:32.977Z,99561.00
2022-09-16T16:52:59.841Z,99565.00
2022-09-16T16:55:27.432Z,99573.00
2022-09-16T16:57:54.273Z,99573.00
2022-09-16T17:00:21.701Z,99568.00
2022-09-16T17:02:49.517Z,99578.00
2022-09-16T17:05:16.409Z,99574.00
2022-09-16T17:07:43.189Z,99577.00
2022-09-16T17:10:11.046Z,99584.00
2022-09-16T17:12:37.799Z,99591.00
2022-09-16T17:15:05.028Z,99586.00
2022-09-16T17:17:32.075Z,99589.00
2022-09-16T17:19:59.132Z,99599.00
2022-09-16T17:22:25.912Z,99596.00
2022-09-16T17:24:52.685Z,99592.00
2022-09-16T17:27:20.706Z,99601.00
2022-09-16T17:29:47.590Z,99606.00
2022-09-16T17:32:14.587Z,99614.00
2022-09-16T17:34:41.548Z,99616.00
2022-09-16T17:37:08.512Z,99616.00
2022-09-16T17:39:35.531Z,99602.00
2022-09-16T17:42:02.317Z,99606.00
2022-09-16T17:44:29.114Z,99615.00
2022-09-16T17:46:55.934Z,99618.00
2022-09-16T17:49:24.610Z,99619.00
2022-09-16T17:51:55.509Z,99620.00
2022-09-16T17:54:22.367Z,99622.00
2022-09-16T17:56:49.316Z,99620.00
2022-09-16T17:59:17.403Z,99620.00
2022-09-16T18:01:44.670Z,99623.00
2022-09-16T18:04:11.475Z,99639.00
2022-09-16T18:06:45.926Z,99645.00
2022-09-16T18:09:16.428Z,99652.00
2022-09-16T18:11:44.050Z,99637.00
2022-09-16T18:14:12.098Z,99645.00
2022-09-16T18:16:39.419Z,99640.00
2022-09-16T18:19:06.570Z,99642.00
2022-09-16T18:21:33.712Z,99641.00
2022-09-16T18:24:02.623Z,99645.00
2022-09-16T18:26:30.663Z,99640.00
2022-09-16T18:29:09.612Z,99645.00
2022-09-16T18:31:37.577Z,99651.00
2022-09-16T18:34:04.676Z,99650.00
2022-09-16T18:36:32.767Z,99659.00
2022-09-16T18:39:03.467Z,99665.00
2022-09-16T18:41:47.541Z,99667.00
2022-09-16T18:44:19.672Z,99667.00
2022-09-16T18:46:47.117Z,99667.00
2022-09-16T18:49:15.989Z,99672.00
2022-09-16T18:51:49.806Z,99673.00
2022-09-16T18:54:28.727Z,99674.00
2022-09-16T18:56:57.136Z,99678.00
2022-09-16T18:59:28.075Z,99696.00
2022-09-16T19:02:00.069Z,99687.00
2022-09-16T19:04:31.785Z,99701.00
2022-09-16T19:07:08.117Z,99694.00
2022-09-16T19:09:37.525Z,99686.00
2022-09-16T19:12:04.650Z,99690.00
2022-09-16T19:14:31.428Z,99700.00
2022-09-16T19:16:58.291Z,99697.00
2022-09-16T19:19:25.033Z,99700.00
2022-09-16T19:21:51.860Z,99702.00
2022-09-16T19:24:21.497Z,99711.00
2022-09-16T19:26:50.156Z,99709.00
2022-09-16T19:29:17.338Z,99711.00
2022-09-16T19:31:45.991Z,99718.00
2022-09-16T19:34:14.561Z,99728.00
2022-09-16T19:36:42.490Z,99718.00
2022-09-16T19:39:10.392Z,99734.00
2022-09-16T19:41:38.459Z,99734.00
2022-09-16T19:44:08.061Z,99740.00
2022-09-16T19:46:36.987Z,99741.00
2022-09-16T19:49:05.569Z,99735.00
2022-09-16T19:51:33.281Z,99734.00
2022-09-16T19:54:01.171Z,99736.00
2022-09-16T19:56:30.674Z,99739.00
2022-09-16T19:58:57.764Z,99738.00
2022-09-16T20:01:26.400Z,99746.00
2022-09-16T20:03:53.968Z,99737.00
2022-09-16T20:06:22.397Z,99748.00
2022-09-16T20:08:56.443Z,99745.00
2022-09-16T20:11:24.729Z,99744.00
2022-09-16T20:13:52.969Z,99754.00
2022-09-16T20:16:21.869Z,99755.00
2022-09-16T20:18:49.413Z,99764.00
2022-09-16T20:21:18.936Z,99754.00
2022-09-16T20:23:46.710Z,99768.00
2022-09-16T20:26:28.426Z,99764.00
2022-09-16T20:28:58.367Z,99765.00
2022-09-16T20:31:31.290Z,99775.00
2022-09-16T20:33:58.693Z,99778.00
2022-09-16T20:36:27.639Z,99771.00
2022-09-16T20:38:54.506Z,99775.00
2022-09-16T20:41:26.401Z,99768.00
2022-09-16T20:43:53.610Z,99777.00
2022-09-16T20:46:22.709Z,99772.00
2022-09-16T20:48:51.652Z,99784.00
2022-09-16T20:51:20.306Z,99783.00
2022-09-16T20:53:52.655Z,99784.00
2022-09-16T20:56:19.661Z,99787.00
2022-09-16T20:58:51.750Z,99788.00
2022-09-16T21:01:22.630Z,99788.00
2022-09-16T21:03:55.279Z,99791.00
2022-09-16T21:06:23.213Z,99789.00
2022-09-16T21:08:59.583Z,99793.00
2022-09-16T21:11:27.764Z,99801.00
2022-09-16T21:13:59.697Z,99800.00
2022-09-16T21:16:29.715Z,99808.00
2022-09-16T21:18:58.761Z,99819.00
2022-09-16T21:21:30.723Z,99811.00
2022-09-16T21:23:59.062Z,99817.00
2022-09-16T21:26:27.238Z,99812.00
2022-09-16T21:28:59.133Z,99822.00
2022-09-16T21:31:48.339Z,99825.00
2022-09-16T21:34:40.850Z,99823.00
2022-09-16T21:37:08.865Z,99827.00
2022-09-16T21:39:35.589Z,99828.00
2022-09-16T21:42:02.410Z,99830.00
2022-09-16T21:44:29.196Z,99830.00
2022-09-16T21:46:55.927Z,99836.00
2022-09-16T21:49:24.277Z,99828.00
2022-09-16T21:51:52.743Z,99838.00
2022-09-16T21:54:20.683Z,99838.00
2022-09-16T21:56:48.196Z,99840.00
2022-09-16T21:59:15.158Z,99850.00
2022-09-16T22:01:42.080Z,99848.00
2022-09-16T22:04:14.879Z,99842.00
2022-09-16T22:06:42.191Z,99853.00
2022-09-16T22:09:09.952Z,99856.00
2022-09-16T22:11:39.473Z,99860.00
2022-09-16T22:14:07.717Z,99856.00
2022-09-16T22:16:37.141Z,99854.00
2022-09-16T22:19:05.163Z,99852.00
2022-09-16T22:21:34.115Z,99859.00
2022-09-16T22:24:02.007Z,99866.00
2022-09-16T22:26:29.854Z,99861.00
2022-09-16T22:28:57.071Z,99855.00
2022-09-16T22:31:29.124Z,99862.00
2022-09-16T22:33:58.130Z,99852.00
2022-09-16T22:36:26.846Z,99866.00
2022-09-16T22:38:56.043Z,99860.00
2022-09-16T22:41:24.363Z,99859.00
2022-09-16T22:43:52.552Z,99852.00
2022-09-16T22:46:27.922Z,99850.00
2022-09-16T22:48:56.193Z,99855.00
2022-09-16T22:51:23.194Z,99851.00
2022-09-16T22:53:49.942Z,99856.00
2022-09-16T22:56:25.710Z,99850.00
2022-09-16T22:58:56.793Z,99853.00
2022-09-16T23:01:26.098Z,99847.00
2022-09-16T23:03:58.167Z,99836.00
2022-09-16T23:06:26.615Z,99835.00
2022-09-16T23:08:53.837Z,99845.00
2022-09-16T23:11:23.672Z,99846.00
2022-09-16T23:13:54.029Z,99848.00
2022-09-16T23:16:27.079Z,99834.00
2022-09-16T23:18:55.910Z,99841.00
2022-09-16T23:21:23.400Z,99843.00
2022-09-16T23:23:56.129Z,99835.00
2022-09-16T23:26:25.614Z,99840.00
2022-09-16T23:28:56.806Z,99841.00
2022-09-16T23:31:32.498Z,99842.00
2022-09-16T23:33:59.688Z,99830.00
2022-09-16T23:36:27.267Z,99837.00
2022-09-16T23:38:55.102Z,99832.00
2022-09-16T23:41:27.306Z,99841.00
2022-09-16T23:43:55.812Z,99845.00
2022-09-16T23:46:24.644Z,99837.00
2022-09-16T23:48:51.841Z,99844.00
2022-09-16T23:51:24.599Z,99836.00
2022-09-16T23:53:54.381Z,99847.00
2022-09-16T23:56:22.042Z,99838.00
2022-09-16T23:58:50.472Z,99847.00
